Tropical Cyclones
[Index]
Main Index Home Page Stock Weather Photos Extreme Storms Discussion Storm News and Storm Chasing Reports Tropical Cyclones / Hurricanes / Typhoons Weather Data and Links Wild Fires / Bushfires Weather Observation Techniques Weather Picture Catalogue Tornado Pictures and Reports Stock Video Footage and DVDs for sale
Season 1999-2000 Tropical Cyclone CONNIE Track Map
Season 1999-2000 Summaries: [BoM-AU] [JTWC-AU] [JTWC-SIO] [JTWC-SPAC] [JTWC-SH]
<<- Previous TC | JTWC 1999-2000 Season | Next TC ->>

click for intensity scale information  Lat/long Grid: Show Hide

 Date Labels: Show Hide

Joint Typhoon Warning Centre Cyclone Data

Name: CONNIE

25 Jan 2000 00:00 UTC to 02 Feb 2000 12:00 UTC

    date/time    lat    long     hPa   cat  kts
2000-01-25 00   15.2    56.2                  20          
2000-01-25 06   15.1    56.0                  25          
2000-01-25 12   15.0    55.8                  25          
2000-01-25 18   14.8    55.7                  35          
2000-01-26 00   14.6    55.6                  35          
2000-01-26 06   14.5    55.6                  35          
2000-01-26 12   14.4    55.7            1     45          
2000-01-26 18   14.4    55.9            2     55          
2000-01-27 00   14.7    56.2            2     60          
2000-01-27 06   15.1    56.4            2     65          
2000-01-27 12   15.5    56.6            3     85          
2000-01-27 18   15.9    56.8            4    115          
2000-01-28 00   16.3    57.0            4    120          
2000-01-28 06   16.7    57.0            4    110          
2000-01-28 12   17.1    57.0            4    110          
2000-01-28 18   17.6    56.6            4    105          
2000-01-29 00   18.1    56.1            3     95          
2000-01-29 06   19.0    55.4            3     90          
2000-01-29 12   19.9    54.7            3     80          
2000-01-29 18   20.9    53.8            3     80          
2000-01-30 00   22.0    53.0            2     70          
2000-01-30 06   23.2    51.8            2     65          
2000-01-30 12   24.4    50.8            2     65          
2000-01-30 18   25.2    50.2            2     65          
2000-01-31 00   26.3    50.2            2     65          
2000-01-31 06   27.6    50.4            2     55          
2000-01-31 12   28.8    50.9            2     55          
2000-01-31 18   29.7    51.3            2     65          
2000-02-01 00   30.5    51.8            2     60          
2000-02-01 06   31.3    52.3            1     45          
2000-02-01 12   31.7    52.7                  35          
2000-02-01 18   32.2    53.2                  35          
2000-02-02 00   32.8    53.8                  25          
2000-02-02 06   33.4    54.5                  25          
2000-02-02 12   34.4    56.0                  25          
Winds are 1-min average.

Tropical cyclone tracks developed by Michael Bath using data from the Joint Typhoon Warning Centre Best Tracks and Google Maps.


[Australian Severe Weather index] [Copyright Notice] [Email Contacts] [Search This Site] [Privacy Policy]
Document: tropical_cyclone_connie.htm Updated: 18 September 2016